Sheppard Air Force Base-Wichita Falls Municipal Airport
KSPS : now visible

Airfield :











YOU CAN JOIN US ON...

 
LOGIN :

Register | Disclaimer

   EN    FR    IT 

 









Legend :    VFR   Marginal VFR   IFR   Intensive IFR   Very Intensive IFR
Visi :
Ceiling :
>= 8 km
>= 3000ft
5 to 8 km
1000 to 3000 ft
1500m to 5 km
500 to 1000 ft
800 to 1500m
200 to 500 ft
< 800m
< 200 ft
Symbols :   Thunderstorms  Fog  Heavy snow  Heavy precipitations  Wind > 20 kt







- Airport Elevation : 1019 ft
- IATA code : SPS


KSPS - Sheppard Air Force Base-Wichita Falls Municipal

CURRENT METAR :
  • 261552Z AUTO 18018KT 10SM FEW027 26/20 A3002 RMK AO2 SLP151 T02610200

EXPIRED METARs :
  • 261528Z AUTO 20019G24KT 10SM SCT025 26/20 A3003 RMK AO2 T02610200
  • 261520Z AUTO 19018G25KT 10SM BKN025 26/20 A3003 RMK AO2 T02560200
  • 261452Z AUTO 18017KT 10SM SCT023 26/20 A3003 RMK AO2 PK WND 20026/1418 SLP156 T02560200 51014
  • 261352Z AUTO 18016G23KT 10SM SCT018 24/20 A3003 RMK AO2 SLP154 T02390200

TAF KSPS
Valid from the 26 at 12:00 until the 27 at 12:00 UTC


261134Z 2612/2712 17014KT P6SM SCT025 BKN250
TEMPO 2614/2617 BKN025
FM261700 17015G24KT P6SM SCT040 BKN250
KZFW FIR / North America



MET'MAP, your aeronautical weather chart ! - Copyright ORBIFLY December 2007 - Disclaimer

ORBIFLY MET'MAP TEAM :

Programming & Development : Alexandra Zaïnal
Concept & Development : Baudouin d'Aumeries
Co-Development & Prog : Marc-Olivier Méhu
Technical & hardware support : Manuel Goepfert

Contact : metmap@orbifly.com




SOURCES & CREDITS :

   NOAA       Earth
Advisory